createdAt,value
2018-02-25T00:02:03.591Z,-3.60
2018-02-25T00:04:31.057Z,-3.60
2018-02-25T00:06:58.512Z,-3.80
2018-02-25T00:09:25.972Z,-3.90
2018-02-25T00:11:53.428Z,-3.90
2018-02-25T00:14:20.880Z,-4.00
2018-02-25T00:16:48.336Z,-4.00
2018-02-25T00:19:15.872Z,-4.00
2018-02-25T00:21:43.328Z,-3.90
2018-02-25T00:24:10.788Z,-4.10
2018-02-25T00:26:38.287Z,-3.80
2018-02-25T00:29:05.763Z,-4.00
2018-02-25T00:31:33.224Z,-4.20
2018-02-25T00:34:00.682Z,-4.20
2018-02-25T00:36:28.144Z,-4.30
2018-02-25T00:38:55.600Z,-3.90
2018-02-25T00:41:23.052Z,-4.10
2018-02-25T00:43:51.278Z,-4.30
2018-02-25T00:46:18.732Z,-4.30
2018-02-25T00:48:46.186Z,-4.20
2018-02-25T00:51:13.644Z,-4.10
2018-02-25T00:53:41.099Z,-4.30
2018-02-25T00:56:08.556Z,-4.10
2018-02-25T00:58:36.016Z,-4.10
2018-02-25T01:01:03.465Z,-4.30
2018-02-25T01:03:30.915Z,-4.40
2018-02-25T01:05:58.363Z,-4.40
2018-02-25T01:08:25.822Z,-4.30
2018-02-25T01:10:53.279Z,-4.30
2018-02-25T01:13:20.736Z,-4.60
2018-02-25T01:15:48.196Z,-4.30
2018-02-25T01:18:15.648Z,-4.40
2018-02-25T01:20:43.103Z,-4.50
2018-02-25T01:23:10.564Z,-4.40
2018-02-25T01:25:38.012Z,-4.70
2018-02-25T01:28:05.475Z,-4.70
2018-02-25T01:30:32.928Z,-4.50
2018-02-25T01:33:00.396Z,-4.70
2018-02-25T01:35:27.843Z,-4.60
2018-02-25T01:37:55.296Z,-4.70
2018-02-25T01:40:22.756Z,-4.50
2018-02-25T01:42:50.203Z,-4.80
2018-02-25T01:45:17.667Z,-4.60
2018-02-25T01:47:45.119Z,-4.80
2018-02-25T01:50:12.574Z,-4.90
2018-02-25T01:52:40.033Z,-4.90
2018-02-25T01:55:07.496Z,-4.90
2018-02-25T01:57:34.943Z,-4.80
2018-02-25T02:00:02.406Z,-5.00
2018-02-25T02:02:29.856Z,-4.90
2018-02-25T02:04:57.314Z,-5.00
2018-02-25T02:07:24.767Z,-4.90
2018-02-25T02:09:52.226Z,-5.10
2018-02-25T02:12:19.680Z,-5.20
2018-02-25T02:14:47.143Z,-5.00
2018-02-25T02:17:14.595Z,-5.10
2018-02-25T02:19:42.048Z,-5.20
2018-02-25T02:22:09.504Z,-5.10
2018-02-25T02:24:36.963Z,-5.00
2018-02-25T02:27:04.414Z,-5.00
2018-02-25T02:29:31.877Z,-5.10
2018-02-25T02:31:59.327Z,-5.10
2018-02-25T02:34:26.786Z,-5.10
2018-02-25T02:36:54.242Z,-5.20
2018-02-25T02:39:21.710Z,-5.10
2018-02-25T02:41:49.174Z,-5.30
2018-02-25T02:44:16.624Z,-5.10
2018-02-25T02:46:44.076Z,-5.30
2018-02-25T02:49:12.351Z,-5.30
2018-02-25T02:51:39.808Z,-5.30
2018-02-25T02:54:07.269Z,-5.20
2018-02-25T02:56:34.723Z,-5.20
2018-02-25T02:59:02.185Z,-5.20
2018-02-25T03:01:29.632Z,-5.20
2018-02-25T03:03:57.091Z,-5.30
2018-02-25T03:06:24.535Z,-5.40
2018-02-25T03:08:52.016Z,-5.30
2018-02-25T03:11:20.228Z,-5.20
2018-02-25T03:13:47.684Z,-5.30
2018-02-25T03:16:15.146Z,-5.30
2018-02-25T03:18:42.598Z,-5.40
2018-02-25T03:21:10.057Z,-5.30
2018-02-25T03:23:37.523Z,-5.40
2018-02-25T03:26:04.993Z,-5.60
2018-02-25T03:28:32.444Z,-5.40
2018-02-25T03:30:59.904Z,-5.50
2018-02-25T03:33:27.360Z,-5.70
2018-02-25T03:35:54.823Z,-5.50
2018-02-25T03:38:22.283Z,-5.70
2018-02-25T03:40:49.748Z,-5.60
2018-02-25T03:43:17.206Z,-5.60
2018-02-25T03:45:44.660Z,-5.60
2018-02-25T03:48:12.103Z,-5.80
2018-02-25T03:50:39.563Z,-5.80
2018-02-25T03:53:07.019Z,-5.60
2018-02-25T03:55:34.476Z,-5.70
2018-02-25T03:58:01.928Z,-5.70
2018-02-25T04:00:29.387Z,-5.70
2018-02-25T04:02:56.844Z,-5.90
2018-02-25T04:05:24.300Z,-5.80
2018-02-25T04:07:51.755Z,-5.70
2018-02-25T04:10:19.211Z,-5.90
2018-02-25T04:12:46.668Z,-6.10
2018-02-25T04:15:14.131Z,-6.10
2018-02-25T04:17:41.583Z,-6.10
2018-02-25T04:20:09.048Z,-6.10
2018-02-25T04:22:36.499Z,-6.20
2018-02-25T04:25:03.955Z,-6.20
2018-02-25T04:27:31.407Z,-6.00
2018-02-25T04:29:58.872Z,-6.00
2018-02-25T04:32:26.319Z,-6.10
2018-02-25T04:34:53.780Z,-6.20
2018-02-25T04:37:21.222Z,-6.10
2018-02-25T04:39:48.678Z,-5.90
2018-02-25T04:42:16.139Z,-6.20
2018-02-25T04:44:43.595Z,-6.30
2018-02-25T04:47:11.055Z,-6.00
2018-02-25T04:49:38.508Z,-6.10
2018-02-25T04:52:05.963Z,-6.30
2018-02-25T04:54:33.419Z,-6.40
2018-02-25T04:57:00.887Z,-6.30
2018-02-25T04:59:28.336Z,-6.00
2018-02-25T05:01:55.791Z,-6.30
2018-02-25T05:04:23.243Z,-6.30
2018-02-25T05:06:50.706Z,-6.20
2018-02-25T05:09:18.159Z,-6.30
2018-02-25T05:11:45.611Z,-6.30
2018-02-25T05:14:13.056Z,-6.50
2018-02-25T05:16:40.524Z,-6.40
2018-02-25T05:19:07.981Z,-6.40
2018-02-25T05:21:35.451Z,-6.30
2018-02-25T05:24:02.903Z,-6.30
2018-02-25T05:26:30.359Z,-6.50
2018-02-25T05:28:57.819Z,-6.60
2018-02-25T05:31:25.276Z,-6.50
2018-02-25T05:33:52.728Z,-6.60
2018-02-25T05:36:20.185Z,-6.50
2018-02-25T05:38:47.648Z,-6.60
2018-02-25T05:41:15.863Z,-6.50
2018-02-25T05:43:43.318Z,-6.50
2018-02-25T05:46:10.780Z,-6.60
2018-02-25T05:48:38.232Z,-6.60
2018-02-25T05:51:05.694Z,-6.60
2018-02-25T05:53:33.911Z,-6.60
2018-02-25T05:56:01.367Z,-6.60
2018-02-25T05:58:28.823Z,-6.50
2018-02-25T06:00:56.868Z,-6.50
2018-02-25T06:03:24.324Z,-6.60
2018-02-25T06:05:51.783Z,-6.70
2018-02-25T06:08:19.236Z,-6.70
2018-02-25T06:10:46.696Z,-6.80
2018-02-25T06:13:14.138Z,-6.90
2018-02-25T06:15:41.598Z,-6.80
2018-02-25T06:18:09.060Z,-6.60
2018-02-25T06:20:36.519Z,-6.70
2018-02-25T06:23:04.015Z,-6.70
2018-02-25T06:25:31.440Z,-6.70
2018-02-25T06:27:58.901Z,-6.90
2018-02-25T06:30:26.348Z,-6.80
2018-02-25T06:32:53.804Z,-6.70
2018-02-25T06:35:21.260Z,-6.90
2018-02-25T06:37:48.728Z,-6.70
2018-02-25T06:40:16.180Z,-6.90
2018-02-25T06:42:43.635Z,-6.70
2018-02-25T06:45:11.082Z,-6.80
2018-02-25T06:47:38.543Z,-6.70
2018-02-25T06:50:05.994Z,-6.70
2018-02-25T06:52:33.464Z,-6.70
2018-02-25T06:55:00.916Z,-6.70
2018-02-25T06:57:28.370Z,-6.70
2018-02-25T06:59:55.823Z,-6.40
2018-02-25T07:02:23.292Z,-6.80
2018-02-25T07:04:50.754Z,-6.40
2018-02-25T07:07:18.212Z,-6.50
2018-02-25T07:09:45.659Z,-6.30
2018-02-25T07:12:13.115Z,-6.40
2018-02-25T07:14:40.560Z,-6.40
2018-02-25T07:17:08.019Z,-6.30
2018-02-25T07:19:35.540Z,-6.00
2018-02-25T07:22:02.543Z,-6.20
2018-02-25T07:24:30.766Z,-5.80
2018-02-25T07:26:57.786Z,-6.10
2018-02-25T07:29:24.798Z,-6.00
2018-02-25T07:31:51.802Z,-5.90
2018-02-25T07:34:18.802Z,-5.60
2018-02-25T07:36:46.585Z,-5.80
2018-02-25T07:39:14.347Z,-5.40
2018-02-25T07:41:41.370Z,-5.40
2018-02-25T07:44:08.379Z,-5.50
2018-02-25T07:46:35.390Z,-5.20
2018-02-25T07:49:02.383Z,-5.10
2018-02-25T07:51:29.657Z,-5.00
2018-02-25T07:53:56.670Z,-5.00
2018-02-25T07:56:23.695Z,-4.90
2018-02-25T07:58:50.706Z,-4.70
2018-02-25T08:01:18.471Z,-4.10
2018-02-25T08:03:46.252Z,-3.70
2018-02-25T08:06:13.245Z,-3.70
2018-02-25T08:08:40.252Z,-3.80
2018-02-25T08:11:07.258Z,-3.70
2018-02-25T08:13:35.090Z,-3.20
2018-02-25T08:16:02.058Z,-3.30
2018-02-25T08:18:29.074Z,-3.10
2018-02-25T08:20:56.203Z,-2.80
2018-02-25T08:23:23.255Z,-2.40
2018-02-25T08:25:50.750Z,-2.60
2018-02-25T08:28:17.882Z,-2.60
2018-02-25T08:30:44.895Z,-2.60
2018-02-25T08:33:11.914Z,-2.40
2018-02-25T08:35:39.679Z,-2.10
2018-02-25T08:38:09.947Z,-1.20
2018-02-25T08:40:37.403Z,-1.10
2018-02-25T08:43:04.410Z,-1.10
2018-02-25T08:45:32.636Z,-0.90
2018-02-25T08:48:00.100Z,-1.10
2018-02-25T08:50:27.564Z,-0.60
2018-02-25T08:52:54.579Z,-0.20
2018-02-25T08:55:22.056Z,-0.70
2018-02-25T08:57:49.563Z,-0.80
2018-02-25T09:00:17.022Z,-0.50
2018-02-25T09:02:44.499Z,-0.30
2018-02-25T09:05:11.505Z,-0.40
2018-02-25T09:07:39.278Z,-0.20
2018-02-25T09:10:07.052Z,-0.90
2018-02-25T09:12:34.533Z,-0.90
2018-02-25T09:15:01.963Z,0.10
2018-02-25T09:17:29.417Z,0.30
2018-02-25T09:19:56.859Z,0.00
2018-02-25T09:22:24.634Z,-0.10
2018-02-25T09:24:52.092Z,-0.20
2018-02-25T09:27:20.268Z,-0.40
2018-02-25T09:29:47.295Z,-0.60
2018-02-25T09:32:15.063Z,-1.70
2018-02-25T09:34:42.850Z,-1.60
2018-02-25T09:37:09.846Z,-1.80
2018-02-25T09:39:36.861Z,-1.90
2018-02-25T09:42:03.859Z,-1.90
2018-02-25T09:44:31.638Z,-1.90
2018-02-25T09:46:58.639Z,-2.30
2018-02-25T09:49:25.734Z,-2.30
2018-02-25T09:51:52.654Z,-1.90
2018-02-25T09:54:20.491Z,-2.00
2018-02-25T09:56:47.449Z,-2.00
2018-02-25T09:59:14.458Z,-1.90
2018-02-25T10:01:41.474Z,-1.40
2018-02-25T10:04:08.935Z,-1.00
2018-02-25T10:06:36.464Z,-0.10
2018-02-25T10:09:04.716Z,-0.30
2018-02-25T10:11:32.170Z,-0.50
2018-02-25T10:13:59.647Z,0.60
2018-02-25T10:16:27.098Z,1.40
2018-02-25T10:18:54.575Z,1.00
2018-02-25T10:21:22.814Z,1.30
2018-02-25T10:23:51.174Z,1.30
2018-02-25T10:26:18.636Z,1.00
2018-02-25T10:28:46.100Z,1.40
2018-02-25T10:31:13.551Z,2.20
2018-02-25T10:33:41.011Z,2.00
2018-02-25T10:36:08.468Z,2.00
2018-02-25T10:38:35.923Z,2.00
2018-02-25T10:41:03.378Z,2.50
2018-02-25T10:43:30.836Z,3.10
2018-02-25T10:45:57.847Z,2.40
2018-02-25T10:48:25.305Z,1.70
2018-02-25T10:50:52.319Z,2.00
2018-02-25T10:53:20.540Z,2.20
2018-02-25T10:55:48.001Z,2.40
2018-02-25T10:58:15.447Z,2.60
2018-02-25T11:00:42.659Z,2.80
2018-02-25T11:03:10.427Z,2.10
2018-02-25T11:05:38.201Z,2.10
2018-02-25T11:08:05.968Z,1.30
2018-02-25T11:10:33.425Z,1.40
2018-02-25T11:13:00.427Z,2.10
2018-02-25T11:15:27.945Z,2.80
2018-02-25T11:17:55.331Z,2.80
2018-02-25T11:20:22.783Z,3.10
2018-02-25T11:22:50.243Z,2.40
2018-02-25T11:25:17.711Z,2.60
2018-02-25T11:27:45.155Z,2.70
2018-02-25T11:30:12.629Z,2.70
2018-02-25T11:32:40.076Z,3.20
2018-02-25T11:35:07.544Z,2.50
2018-02-25T11:37:35.011Z,2.20
2018-02-25T11:40:03.253Z,2.90
2018-02-25T11:42:30.708Z,3.20
2018-02-25T11:44:58.176Z,3.60
2018-02-25T11:47:25.619Z,4.00
2018-02-25T11:49:53.080Z,3.80
2018-02-25T11:52:20.535Z,3.40
2018-02-25T11:54:47.534Z,3.50
2018-02-25T11:57:14.990Z,3.60
2018-02-25T11:59:42.448Z,3.20
2018-02-25T12:02:09.446Z,3.90
2018-02-25T12:04:36.904Z,3.90
2018-02-25T12:07:04.359Z,4.10
2018-02-25T12:09:31.370Z,3.80
2018-02-25T12:11:58.562Z,3.40
2018-02-25T12:14:25.567Z,3.20
2018-02-25T12:16:53.035Z,2.90
2018-02-25T12:19:20.043Z,3.60
2018-02-25T12:21:47.492Z,3.40
2018-02-25T12:24:15.727Z,3.80
2018-02-25T12:26:43.175Z,3.80
2018-02-25T12:29:10.640Z,3.50
2018-02-25T12:31:38.096Z,2.90
2018-02-25T12:34:05.545Z,3.30
2018-02-25T12:36:33.003Z,3.20
2018-02-25T12:39:00.462Z,3.50
2018-02-25T12:41:27.931Z,3.40
2018-02-25T12:43:55.372Z,3.60
2018-02-25T12:46:22.379Z,3.00
2018-02-25T12:48:49.828Z,2.80
2018-02-25T12:51:16.831Z,2.90
2018-02-25T12:53:43.824Z,2.80
2018-02-25T12:56:10.860Z,3.10
2018-02-25T12:58:38.635Z,3.50
2018-02-25T13:01:06.085Z,3.50
2018-02-25T13:03:33.091Z,4.00
2018-02-25T13:06:00.118Z,4.00
2018-02-25T13:08:27.573Z,3.60
2018-02-25T13:10:54.600Z,4.00
2018-02-25T13:13:21.604Z,4.00
2018-02-25T13:15:49.374Z,2.70
2018-02-25T13:18:17.597Z,2.50
2018-02-25T13:20:45.066Z,2.50
2018-02-25T13:23:12.529Z,2.20
2018-02-25T13:25:39.983Z,2.40
2018-02-25T13:28:07.432Z,2.30
2018-02-25T13:30:34.895Z,2.50
2018-02-25T13:33:02.339Z,2.60
2018-02-25T13:35:29.810Z,2.60
2018-02-25T13:37:56.823Z,2.40
2018-02-25T13:40:23.827Z,2.20
2018-02-25T13:42:51.595Z,2.30
2018-02-25T13:45:19.367Z,2.50
2018-02-25T13:47:47.134Z,2.40
2018-02-25T13:50:14.142Z,2.70
2018-02-25T13:52:41.139Z,2.60
2018-02-25T13:55:08.143Z,2.50
2018-02-25T13:57:35.143Z,2.10
2018-02-25T14:00:02.927Z,1.40
2018-02-25T14:02:30.386Z,1.30
2018-02-25T14:04:57.840Z,1.40
2018-02-25T14:07:25.299Z,2.10
2018-02-25T14:09:52.306Z,2.00
2018-02-25T14:12:19.317Z,1.90
2018-02-25T14:14:46.327Z,1.70
2018-02-25T14:17:13.326Z,1.40
2018-02-25T14:19:41.091Z,1.10
2018-02-25T14:22:08.855Z,1.10
2018-02-25T14:24:36.621Z,1.30
2018-02-25T14:27:04.391Z,1.30
2018-02-25T14:29:31.398Z,1.60
2018-02-25T14:31:58.410Z,1.50
2018-02-25T14:34:26.166Z,1.00
2018-02-25T14:36:53.197Z,1.10
2018-02-25T14:39:20.192Z,1.20
2018-02-25T14:41:47.197Z,1.10
2018-02-25T14:44:14.205Z,0.70
2018-02-25T14:46:41.971Z,0.70
2018-02-25T14:49:09.755Z,0.40
2018-02-25T14:51:37.510Z,0.20
2018-02-25T14:54:04.514Z,0.30
2018-02-25T14:56:31.522Z,0.20
2018-02-25T14:58:58.531Z,0.00
2018-02-25T15:01:26.304Z,0.00
2018-02-25T15:03:54.082Z,-0.10
2018-02-25T15:06:21.091Z,0.00
2018-02-25T15:08:48.110Z,-0.10
2018-02-25T15:11:15.117Z,-0.30
2018-02-25T15:13:42.130Z,-0.30
2018-02-25T15:16:09.185Z,-0.20
2018-02-25T15:18:36.953Z,-0.20
2018-02-25T15:21:04.746Z,-0.30
2018-02-25T15:23:31.743Z,-0.40
2018-02-25T15:25:58.746Z,-0.60
2018-02-25T15:28:25.764Z,-0.60
2018-02-25T15:30:53.534Z,-0.80
2018-02-25T15:33:20.547Z,-0.50
2018-02-25T15:35:47.585Z,-0.80
2018-02-25T15:38:14.567Z,-0.60
2018-02-25T15:40:42.386Z,-0.80
2018-02-25T15:43:09.356Z,-0.60
2018-02-25T15:45:36.366Z,-0.90
2018-02-25T15:48:03.387Z,-1.00
2018-02-25T15:50:30.402Z,-1.10
2018-02-25T15:52:58.179Z,-1.20
2018-02-25T15:55:25.183Z,-1.10
2018-02-25T15:57:52.189Z,-1.20
2018-02-25T16:00:19.198Z,-1.10
2018-02-25T16:02:46.978Z,-1.30
2018-02-25T16:05:14.774Z,-1.40
2018-02-25T16:07:41.771Z,-1.00
2018-02-25T16:10:09.537Z,-1.30
2018-02-25T16:12:37.312Z,-1.40
2018-02-25T16:15:05.091Z,-1.60
2018-02-25T16:17:32.111Z,-1.60
2018-02-25T16:19:59.887Z,-1.50
2018-02-25T16:22:27.666Z,-1.60
2018-02-25T16:24:54.676Z,-1.50
2018-02-25T16:27:21.691Z,-1.70
2018-02-25T16:29:48.690Z,-1.60
2018-02-25T16:32:15.703Z,-1.40
2018-02-25T16:34:42.714Z,-1.80
2018-02-25T16:37:09.727Z,-1.50
2018-02-25T16:39:36.738Z,-1.60
2018-02-25T16:42:03.758Z,-1.90
2018-02-25T16:44:30.770Z,-1.90
2018-02-25T16:46:57.788Z,-2.00
2018-02-25T16:49:24.804Z,-2.10
2018-02-25T16:51:51.803Z,-2.10
2018-02-25T16:54:18.814Z,-2.10
2018-02-25T16:56:45.815Z,-2.10
2018-02-25T16:59:12.836Z,-2.00
2018-02-25T17:01:40.601Z,-2.00
2018-02-25T17:04:07.671Z,-2.30
2018-02-25T17:06:34.672Z,-2.40
2018-02-25T17:09:01.683Z,-2.30
2018-02-25T17:11:28.691Z,-2.30
2018-02-25T17:13:55.715Z,-2.50
2018-02-25T17:16:23.478Z,-2.40
2018-02-25T17:18:51.254Z,-2.30
2018-02-25T17:21:19.023Z,-2.60
2018-02-25T17:23:46.035Z,-2.60
2018-02-25T17:26:13.056Z,-2.60
2018-02-25T17:28:40.072Z,-2.50
2018-02-25T17:31:07.700Z,-2.60
2018-02-25T17:33:35.600Z,-2.60
2018-02-25T17:36:02.620Z,-2.70
2018-02-25T17:38:30.392Z,-2.50
2018-02-25T17:40:58.164Z,-2.80
2018-02-25T17:43:25.201Z,-2.60
2018-02-25T17:45:52.966Z,-2.50
2018-02-25T17:48:20.745Z,-2.80
2018-02-25T17:50:47.856Z,-2.80
2018-02-25T17:53:15.659Z,-2.90
2018-02-25T17:55:42.758Z,-2.90
2018-02-25T17:58:10.494Z,-3.00
2018-02-25T18:00:37.499Z,-3.00
2018-02-25T18:03:04.529Z,-2.90
2018-02-25T18:05:32.316Z,-3.10
2018-02-25T18:07:59.334Z,-3.10
2018-02-25T18:10:27.111Z,-3.20
2018-02-25T18:12:54.949Z,-3.10
2018-02-25T18:15:22.020Z,-3.40
2018-02-25T18:17:49.812Z,-3.10
2018-02-25T18:20:16.857Z,-3.30
2018-02-25T18:22:43.883Z,-3.40
2018-02-25T18:25:11.679Z,-3.50
2018-02-25T18:27:38.691Z,-3.70
2018-02-25T18:30:05.722Z,-3.40
2018-02-25T18:32:32.747Z,-3.40
2018-02-25T18:34:59.796Z,-3.40
2018-02-25T18:37:26.827Z,-3.70
2018-02-25T18:39:53.838Z,-3.90
2018-02-25T18:42:20.857Z,-3.90
2018-02-25T18:44:47.876Z,-3.90
2018-02-25T18:47:14.922Z,-3.80
2018-02-25T18:49:42.595Z,-4.10
2018-02-25T18:52:09.610Z,-4.00
2018-02-25T18:54:36.654Z,-4.00
2018-02-25T18:57:03.651Z,-3.90
2018-02-25T18:59:31.459Z,-4.10
2018-02-25T19:01:58.478Z,-4.20
2018-02-25T19:04:26.270Z,-4.10
2018-02-25T19:06:53.275Z,-4.00
2018-02-25T19:09:21.058Z,-4.30
2018-02-25T19:11:48.077Z,-4.10
2018-02-25T19:14:15.085Z,-4.30
2018-02-25T19:16:42.099Z,-4.40
2018-02-25T19:19:09.103Z,-4.30
2018-02-25T19:21:36.123Z,-4.40
2018-02-25T19:24:03.122Z,-4.50
2018-02-25T19:26:30.895Z,-4.60
2018-02-25T19:28:57.903Z,-4.70
2018-02-25T19:31:24.908Z,-4.70
2018-02-25T19:33:51.919Z,-4.70
2018-02-25T19:36:25.352Z,-4.90
2018-02-25T19:38:58.033Z,-5.00
2018-02-25T19:41:30.768Z,-4.90
2018-02-25T19:43:58.546Z,-5.20
2018-02-25T19:46:26.364Z,-5.10
2018-02-25T19:48:53.363Z,-5.30
2018-02-25T19:51:20.366Z,-5.20
2018-02-25T19:53:47.374Z,-5.30
2018-02-25T19:56:14.398Z,-5.40
2018-02-25T19:58:41.402Z,-5.20
2018-02-25T20:01:08.411Z,-5.20
2018-02-25T20:03:36.195Z,-5.30
2018-02-25T20:06:03.234Z,-5.40
2018-02-25T20:08:30.273Z,-5.40
2018-02-25T20:10:57.270Z,-5.40
2018-02-25T20:13:25.039Z,-5.30
2018-02-25T20:15:52.810Z,-5.60
2018-02-25T20:18:20.583Z,-5.70
2018-02-25T20:20:47.599Z,-5.60
2018-02-25T20:23:14.623Z,-5.60
2018-02-25T20:25:41.627Z,-5.70
2018-02-25T20:28:08.638Z,-5.70
2018-02-25T20:30:35.638Z,-5.80
2018-02-25T20:33:02.707Z,-5.70
2018-02-25T20:35:29.721Z,-5.70
2018-02-25T20:37:56.720Z,-6.10
2018-02-25T20:40:23.726Z,-5.80
2018-02-25T20:42:50.722Z,-5.80
2018-02-25T20:45:18.510Z,-5.90
2018-02-25T20:47:45.531Z,-5.80
2018-02-25T20:50:13.298Z,-6.00
2018-02-25T20:52:41.074Z,-6.00
2018-02-25T20:55:08.846Z,-6.00
2018-02-25T20:57:35.858Z,-6.00
2018-02-25T21:00:02.875Z,-5.90
2018-02-25T21:02:29.874Z,-6.00
2018-02-25T21:04:56.891Z,-5.70
2018-02-25T21:07:23.885Z,-5.70
2018-02-25T21:09:50.895Z,-5.50
2018-02-25T21:12:18.664Z,-5.60
2018-02-25T21:14:46.443Z,-5.30
2018-02-25T21:17:13.452Z,-5.50
2018-02-25T21:19:40.458Z,-5.30
2018-02-25T21:22:07.458Z,-5.30
2018-02-25T21:24:35.260Z,-5.20
2018-02-25T21:27:02.271Z,-5.20
2018-02-25T21:29:30.039Z,-5.20
2018-02-25T21:31:57.819Z,-5.00
2018-02-25T21:34:24.831Z,-5.20
2018-02-25T21:36:51.843Z,-5.10
2018-02-25T21:39:18.854Z,-5.00
2018-02-25T21:41:45.866Z,-5.00
2018-02-25T21:44:12.870Z,-4.90
2018-02-25T21:46:39.874Z,-5.10
2018-02-25T21:49:07.735Z,-5.00
2018-02-25T21:51:34.703Z,-5.10
2018-02-25T21:54:01.706Z,-5.20
2018-02-25T21:56:44.499Z,-5.10
2018-02-25T21:59:17.202Z,-4.90
2018-02-25T22:02:01.967Z,-4.80
2018-02-25T22:04:28.898Z,-4.80
2018-02-25T22:06:55.915Z,-4.90
2018-02-25T22:09:22.911Z,-5.00
2018-02-25T22:11:50.687Z,-5.00
2018-02-25T22:14:18.450Z,-5.00
2018-02-25T22:16:46.223Z,-5.10
2018-02-25T22:19:13.239Z,-5.10
2018-02-25T22:21:40.262Z,-5.10
2018-02-25T22:24:07.259Z,-5.10
2018-02-25T22:26:34.275Z,-5.10
2018-02-25T22:29:01.275Z,-5.20
2018-02-25T22:31:28.278Z,-5.10
2018-02-25T22:33:56.046Z,-5.30
2018-02-25T22:36:23.828Z,-5.50
2018-02-25T22:38:50.834Z,-5.40
2018-02-25T22:41:17.834Z,-5.50
2018-02-25T22:43:44.842Z,-5.40
2018-02-25T22:46:12.621Z,-5.40
2018-02-25T22:48:40.387Z,-5.30
2018-02-25T22:51:07.404Z,-5.40
2018-02-25T22:53:34.403Z,-5.30
2018-02-25T22:56:01.411Z,-5.60
2018-02-25T22:58:29.188Z,-5.60
2018-02-25T23:00:56.958Z,-5.70
2018-02-25T23:03:23.960Z,-5.60
2018-02-25T23:05:50.970Z,-5.40
2018-02-25T23:08:17.971Z,-5.30
2018-02-25T23:10:45.747Z,-5.30
2018-02-25T23:13:13.516Z,-5.50
2018-02-25T23:15:40.530Z,-5.60
2018-02-25T23:18:07.534Z,-5.50
2018-02-25T23:20:34.535Z,-5.60
2018-02-25T23:23:02.312Z,-5.50
2018-02-25T23:25:30.079Z,-5.60
2018-02-25T23:27:57.087Z,-5.70
2018-02-25T23:30:24.086Z,-5.80
2018-02-25T23:32:51.154Z,-5.70
2018-02-25T23:35:18.871Z,-5.70
2018-02-25T23:37:46.653Z,-5.80
2018-02-25T23:40:13.655Z,-5.80
2018-02-25T23:42:40.674Z,-5.70
2018-02-25T23:45:07.679Z,-5.80
2018-02-25T23:47:34.693Z,-5.80
2018-02-25T23:50:01.700Z,-6.00
2018-02-25T23:52:28.707Z,-5.90
2018-02-25T23:54:56.479Z,-5.80
2018-02-25T23:57:24.252Z,-5.80
2018-02-25T23:59:51.259Z,-5.90
